Terminal Aerodrome Forecast
Issued by NWS

Home | Current Version | Previous Version | Text Only | Print | Product List | Glossary Off
Versions: 1 2 3 4 5 6 7 8 9 10 11 12 13 14 15 16 17 18 19 20 21

845
FTUS41 KCLE 171012 AAA
TAFFDY
TAF AMD
KFDY 171012Z 1710/1806 18013KT P6SM BKN020
      TEMPO 1710/1712 3SM -SHRA BR OVC008
     FM171200 20010KT 4SM -SHRA BR OVC015
     FM171700 25014G22KT 6SM BR OVC015=

USA.gov is the U.S. government's official web portal to all federal, state and local government web resources and services.